Aérodrome :
LOGIN :

S'inscrire | Disclaimer

   EN    FR    IT 

 










Légende :    VFR   VFR Marginal   IFR   IFR Intensif   IFR Très Intensif
Visi : 
Plafond : 
>= 8 km
>= 3000ft
5 à 8 km
1000 à 3000 ft
1500m à 5 km
500 à 1000 ft
800 à 1500m
200 à 500 ft
< 800m
< 200 ft
Symboles :   Orages  Brouillard  Fortes neiges  Fortes précipitations  Vent > 20 kt
SIGMETs :   Divers  Orages  Givrage  Turbulence  Onde Orograph.  Cendres Volcan.







- Altitude de l'aérodrome : 359 ft
- Code IATA : BVA
- Voir les cartes d'approche


LFOB - Beauvais

DERNIER METAR :
  • 231730Z AUTO 06010KT CAVOK 10/09 Q1011 TEMPO 2000 TSRA BKN010 BKN030CB

METARs EXPIRÉS :
  • 231700Z AUTO 05010KT 9999 ///TCU 10/08 Q1011 TEMPO 09015G25KT 2000 TSRA BKN025CB
  • 231630Z AUTO 06009KT 9999 -RA FEW026/// BKN056/// OVC076/// ///TCU 10/08 Q1011 TEMPO 09015G25KT 2000 TSRA BKN025CB
  • 231600Z AUTO 09008KT 9999 3000 RA FEW029/// SCT035/// BKN041/// ///CB 11/09 Q1011 TEMPO 09015G25KT 2000 TSRA
  • 231530Z AUTO 07014KT 9999 -RA BKN041/// BKN047/// OVC056/// ///TCU 12/08 Q1010 TEMPO 09015G25KT 2000 TSRA BKN025CB
  • 231500Z AUTO 07013KT 9999 BKN039/// BKN045/// BKN052/// ///CB 13/07 Q1010 TEMPO 09015G25KT 2000 TSRA

TAF TAF LFOB
Valide du 23 à 18h jusqu'au 24 à 18h UTC


231700Z 2318/2418 07012KT 9999 BKN030
TEMPO 2318/2322 4000 SHRA BKN010 BKN030TCU
PROB40
TEMPO 2318/2322 2000 TSRA BKN010 BKN030CB
TEMPO 2400/2409 3000 BR BKN004
ATIS : +33 3 44 11 49 28
Pas de NOTAMs connus pour ce terrain.
4 SIGMETs publiés pour la FIR Paris (LFFF) :
 
Orages noyés dans la masse
LFFF SIGMET 5 VALID 231800/232000 LFPW
LFFF PARIS FIR/UIR EMBD TS FCST WI N4800 E00500 - N4730 E00415 - N4630 E00445 - N4630 E00330 - N4815 E00330 TOP FL320 MOV N 15KT NC=
Annulation du SIGMET 3 
LFFF SIGMET 4 VALID 231730/231800 LFPW
LFFF PARIS FIR/UIR CNL SIGMET 3 231600/231800=
SIGMET 3  ANNULÉ :
Orages noyés dans la masse
LFFF SIGMET 3 VALID 231600/231800 LFPW
LFFF PARIS FIR/UIR EMBD TS OBS WI N5000 E00215 - N4945 E00300 - N4830 E00045 - N4900 E00015 TOP FL320 MOV NW 20KT NC=
Orages noyés dans la masse
LFFF SIGMET 2 VALID 231540/231800 LFPW
LFFF PARIS FIR/UIR EMBD TS OBS WI N4745 E00445 - N4730 E00415 - N4630 E00445 - N4630 E00330 - N4800 E00330 TOP FL320 MOV N 15KT NC=



MET'MAP, la Météo Aéronautique d'un coup d'oeil ! - Copyright ORBIFLY Décembre 2007 - Disclaimer

ORBIFLY MET'MAP TEAM :

Programmation & Développement : Alexandra Zaïnal
Conception & Développement : Baudouin d'Aumeries
Co-Programmation & Développement : Marc-Olivier Méhu
Soutien technique & logistique : Manuel Goepfert

Contact : metmap@orbifly.com




SOURCES & CREDITS :

   NOAA